Tuesday, January 23, 2018, 6:23 AM CST
Back to Local

KGCK, Garden City Regional Airport

Location: Garden City, KS, United States Lat: 37.917
Local Time: 6:23 AM CST (12:23 GMT) Lon: -100.717
Time Zone: US/Central Elev: 2890 ft

Show me the last for .
Show Decoded

2018-01-23 05:54 METAR KGCK 231154Z AUTO 30009KT 10SM CLR M08/M12 A3017 RMK AO2 SLP244 T10781122
                 11061 21089 53011 =
2018-01-23 04:54 METAR KGCK 231054Z AUTO 31011KT 10SM CLR M07/M12 A3015 RMK AO2 SLP232 T10671117
                 =
2018-01-23 03:54 METAR KGCK 230954Z AUTO 30009KT 10SM CLR M07/M11 A3016 RMK AO2 SLP232 T10671111
                 =
2018-01-23 02:54 METAR KGCK 230854Z AUTO 29010KT 10SM CLR M09/M12 A3014 RMK AO2 SLP229 T10891122
                 53005 =
2018-01-23 01:54 METAR KGCK 230754Z AUTO 29009KT 10SM CLR M08/M12 A3012 RMK AO2 SLP224 T10831117
                 =
2018-01-23 00:54 METAR KGCK 230654Z AUTO 29010KT 10SM CLR M07/M11 A3013 RMK AO2 SLP225 T10721106
                 =
2018-01-22 23:54 METAR KGCK 230554Z AUTO 29011KT 10SM CLR M07/M10 A3012 RMK AO2 SLP223 T10671100
                 10022 21094 400561094 51016 =
2018-01-22 22:54 METAR KGCK 230454Z AUTO 28009KT 10SM CLR M09/M12 A3011 RMK AO2 SLP226 T10891117
                 =
2018-01-22 21:54 METAR KGCK 230354Z AUTO 27010KT 10SM CLR M07/M11 A3010 RMK AO2 SLP220 T10721111
                 =
2018-01-22 20:54 METAR KGCK 230254Z 32010KT 10SM CLR M03/M09 A3007 RMK AO2 SLP205 T10281089 51014
                 =
2018-01-22 19:54 METAR KGCK 230154Z 30010KT 10SM CLR M01/M09 A3007 RMK AO2 SLP203 T10111089 =
2018-01-22 18:54 METAR KGCK 230054Z 30009KT 10SM CLR M01/M10 A3005 RMK AO2 SLP196 T10111100 =
2018-01-22 17:54 METAR KGCK 222354Z 32012KT 10SM CLR 02/M09 A3003 RMK AO2 PK WND 33029/2308
                 SLP184 T00221089 10056 20022 51024 =
2018-01-22 16:54 METAR KGCK 222254Z 34023G32KT 10SM CLR 04/M10 A3000 RMK AO2 PK WND 33036/2157
                 SLP173 T00441100 =
2018-01-22 15:54 METAR KGCK 222154Z 33025G34KT 10SM CLR 06/M09 A2997 RMK AO2 PK WND 34040/2123
                 SLP162 T00561094 =
2018-01-22 14:54 METAR KGCK 222054Z 33027G37KT 10SM CLR 06/M08 A2995 RMK AO2 PK WND 34040/1955
                 SLP154 T00561083 53002 =
2018-01-22 13:54 METAR KGCK 221954Z 34030G42KT 10SM CLR 04/M08 A2993 RMK AO2 PK WND 33045/1913
                 SLP149 T00441078 =
2018-01-22 12:54 METAR KGCK 221854Z 32032G43KT 10SM CLR 04/M07 A2993 RMK AO2 PK WND 33044/1840
                 SLP149 T00391072 =
2018-01-22 11:54 METAR KGCK 221754Z 32026G38KT 10SM CLR 03/M06 A2994 RMK AO2 PK WND 33043/1720
                 SLP154 60000 T00331061 10033 21011 51030 =
2018-01-22 10:54 METAR KGCK 221654Z 33029G44KT 10SM FEW100 01/M06 A2992 RMK AO2 PK WND 33044/1651
                 SLP149 T00111056 =
2018-01-22 09:54 METAR KGCK 221554Z 33030G43KT 10SM SCT110 00/M04 A2989 RMK AO2 PK WND 33045/1513
                 SLP138 T00001039 =
2018-01-22 08:54 METAR KGCK 221454Z 33030G41KT 10SM FEW021 BKN090 M01/M04 A2984 RMK AO2 PK WND
                 32044/1417 SLP124 60000 T10061039 51022 =
2018-01-22 08:48 METAR KGCK 221448Z 33029G44KT 10SM SCT021 BKN085 M01/M04 A2984 RMK AO2 PK WND
                 32044/1417 =
2018-01-22 08:40 METAR KGCK 221440Z 33030G44KT 10SM BKN021 BKN085 M01/M04 A2984 RMK AO2 PK WND
                 32044/1417 T10111044 =
2018-01-22 08:36 METAR KGCK 221436Z 33030G44KT 10SM SCT021 M01/M04 A2983 RMK AO2 PK WND
                 32044/1417 T10111044 =
2018-01-22 07:54 METAR KGCK 221354Z 33032G44KT 10SM BKN020 OVC048 M01/M04 A2982 RMK AO2 PK WND
                 33051/1335 UPB22E25SNE22 SLP114 P0000 T10111039 $ =
2018-01-22 06:54 METAR KGCK 221254Z 33031G43KT 3SM -SN BR BKN018 OVC023 M01/M03 A2977 RMK AO2 PK
                 WND 32046/1209 SLP099 P0000 T10111033 $ =

Support USWX by starting your Amazon purchase here.